Terminal Aerodrome Forecast
Issued by NWS North Platte, NE

Home | Current Version | Previous Version | Graphics & Text | Print | Product List | Glossary Off
Versions: 1 2 3 4 5 6 7 8 9 10 11 12

758
FTUS43 KLBF 100520
TAFVTN
TAF
KVTN 100520Z 1006/1106 00000KT P6SM OVC070
     FM100700 26007KT P6SM SCT100
     FM101700 32015G24KT P6SM FEW200
     FM110000 36010KT P6SM SCT200
     FM110300 01010KT P6SM OVC010=

USA.gov is the U.S. government's official web portal to all federal, state and local government web resources and services.